Time;durP1;ratioP1;P1;durP2;ratioP2;P2;SDS_P1;SDS_P2;PMS_P1;PMS_P2;Temp;Humidity;BMP_temperature;BMP_pressure;BME280_temperature;BME280_humidity;BME280_pressure;Samples;Min_cycle;Max_cycle;Signal;HPM_P1;HPM_P2
2023/10/25 00:02:12;;;;;;;10.15;8.20;;;;;;;6.84;100.00;94834.25;5089885;28;20039;-65
2023/10/25 00:04:37;;;;;;;7.22;6.63;;;;;;;6.96;100.00;94831.47;5086279;28;20050;-64
2023/10/25 00:07:03;;;;;;;7.35;6.65;;;;;;;6.95;100.00;94832.44;5089758;28;20028;-65
2023/10/25 00:09:28;;;;;;;6.57;6.05;;;;;;;6.91;100.00;94821.44;5093608;28;20036;-64
2023/10/25 00:11:54;;;;;;;6.53;6.00;;;;;;;6.96;100.00;94826.25;5090454;28;20031;-65
2023/10/25 00:14:19;;;;;;;6.15;5.72;;;;;;;7.00;100.00;94822.41;5085299;28;20078;-65
2023/10/25 00:16:45;;;;;;;8.60;6.05;;;;;;;7.00;100.00;94815.34;5086408;28;20024;-64
2023/10/25 00:19:10;;;;;;;5.95;5.45;;;;;;;6.98;100.00;94822.53;5092886;28;20016;-65
2023/10/25 00:21:36;;;;;;;7.43;4.95;;;;;;;6.91;100.00;94815.38;5085033;28;20074;-64
2023/10/25 00:24:01;;;;;;;5.95;4.65;;;;;;;6.88;100.00;94809.47;5085337;28;20104;-64
2023/10/25 00:26:27;;;;;;;5.00;4.70;;;;;;;6.87;100.00;94812.25;5089082;28;20024;-65
2023/10/25 00:28:52;;;;;;;5.65;5.15;;;;;;;6.83;100.00;94803.84;5083613;28;20040;-64
2023/10/25 00:31:18;;;;;;;6.32;5.85;;;;;;;6.81;100.00;94803.16;5086970;28;20067;-63
2023/10/25 00:33:43;;;;;;;6.70;6.05;;;;;;;6.77;100.00;94754.69;5089538;28;20090;-64
2023/10/25 00:36:08;;;;;;;6.03;5.53;;;;;;;6.76;100.00;94763.50;5088467;28;20071;-64
2023/10/25 00:38:34;;;;;;;6.55;6.00;;;;;;;6.77;100.00;94759.94;5087841;28;20035;-64
2023/10/25 00:41:00;;;;;;;6.05;5.55;;;;;;;6.73;100.00;94750.69;5081515;28;20142;-64
2023/10/25 00:43:25;;;;;;;6.07;5.57;;;;;;;6.70;100.00;94753.59;5093096;28;20032;-64
2023/10/25 00:45:57;;;;;;;6.93;6.30;;;;;;;6.68;100.00;94748.53;5083856;28;20039;-64
2023/10/25 00:48:23;;;;;;;8.60;7.80;;;;;;;6.69;100.00;94763.25;5091148;28;20071;-64
2023/10/25 00:50:48;;;;;;;7.88;6.88;;;;;;;6.70;100.00;94761.44;5088865;28;20059;-65
2023/10/25 00:53:14;;;;;;;8.20;7.50;;;;;;;6.61;100.00;94770.16;5090921;28;20362;-64
2023/10/25 00:55:39;;;;;;;7.63;7.03;;;;;;;6.60;100.00;94758.84;5086372;28;20548;-65
2023/10/25 00:58:05;;;;;;;7.32;6.75;;;;;;;6.61;100.00;94752.66;5087853;28;20031;-64
2023/10/25 01:00:32;;;;;;;7.70;7.00;;;;;;;6.63;100.00;94755.13;5083923;28;20089;-64
2023/10/25 01:02:59;;;;;;;7.25;6.55;;;;;;;6.57;100.00;94752.13;5085095;28;20088;-65
2023/10/25 01:05:24;;;;;;;6.65;6.15;;;;;;;6.46;100.00;94752.25;5085035;28;20036;-64
2023/10/25 01:07:49;;;;;;;7.38;6.88;;;;;;;6.49;100.00;94746.75;5085921;28;20493;-64
2023/10/25 01:10:15;;;;;;;8.60;7.85;;;;;;;6.53;100.00;94749.91;5086718;28;20039;-65
2023/10/25 01:12:40;;;;;;;8.75;6.45;;;;;;;6.50;100.00;94745.78;5091907;28;20404;-64
2023/10/25 01:15:06;;;;;;;9.40;6.25;;;;;;;6.51;100.00;94746.63;5094163;28;20031;-65
2023/10/25 01:17:31;;;;;;;6.82;5.68;;;;;;;6.49;100.00;94748.56;5088454;28;20077;-65
2023/10/25 01:19:57;;;;;;;6.47;5.88;;;;;;;6.43;100.00;94753.38;5087071;28;20054;-64
2023/10/25 01:22:25;;;;;;;6.78;6.00;;;;;;;6.47;100.00;94756.53;5085377;28;20066;-64
2023/10/25 01:24:51;;;;;;;5.70;5.30;;;;;;;6.50;100.00;94760.66;5089631;28;20032;-65
2023/10/25 01:27:16;;;;;;;6.00;5.45;;;;;;;6.52;100.00;94754.34;5081326;28;20067;-65
2023/10/25 01:29:41;;;;;;;6.07;5.43;;;;;;;6.55;100.00;94753.22;5090495;28;20036;-65
2023/10/25 01:32:07;;;;;;;8.35;6.15;;;;;;;6.58;100.00;94745.09;5089127;28;20027;-64
2023/10/25 01:34:32;;;;;;;6.75;5.55;;;;;;;6.62;100.00;94743.03;5090263;28;20039;-65
2023/10/25 01:36:58;;;;;;;6.82;6.22;;;;;;;6.58;100.00;94732.84;5083547;28;20020;-65
2023/10/25 01:39:23;;;;;;;35.30;7.22;;;;;;;6.62;100.00;94727.31;5096604;28;20048;-65
2023/10/25 01:41:48;;;;;;;27.10;6.50;;;;;;;6.65;100.00;94725.25;5088987;28;20701;-65
2023/10/25 01:44:14;;;;;;;27.92;6.40;;;;;;;6.60;100.00;94727.47;5091254;28;20027;-65
2023/10/25 01:46:39;;;;;;;35.05;7.22;;;;;;;6.62;100.00;94722.09;5072963;28;20016;-65
2023/10/25 01:49:05;;;;;;;15.48;7.40;;;;;;;6.48;100.00;94716.34;5087061;28;20028;-64
2023/10/25 01:51:30;;;;;;;23.67;5.90;;;;;;;6.44;100.00;94707.97;5088597;28;20093;-64
2023/10/25 01:53:55;;;;;;;21.90;6.32;;;;;;;6.39;100.00;94706.72;5085826;28;20032;-65
2023/10/25 01:56:21;;;;;;;7.40;6.18;;;;;;;6.30;100.00;94701.38;5090812;28;20039;-64
2023/10/25 01:58:46;;;;;;;16.48;5.00;;;;;;;6.29;100.00;94691.06;5088235;28;20086;-65
2023/10/25 02:01:11;;;;;;;5.40;5.00;;;;;;;6.27;100.00;94685.16;5089132;28;20062;-64
2023/10/25 02:03:37;;;;;;;5.00;4.68;;;;;;;6.24;100.00;94670.56;5090341;28;20051;-64
2023/10/25 02:06:15;;;;;;;8.70;5.15;;;;;;;6.22;100.00;94663.84;5086612;28;20083;-65
2023/10/25 02:08:41;;;;;;;5.50;5.05;;;;;;;6.17;100.00;94666.88;5081089;28;20076;-65
2023/10/25 02:11:07;;;;;;;7.38;5.28;;;;;;;6.16;100.00;94671.25;5083693;28;20039;-65
2023/10/25 02:13:32;;;;;;;9.85;6.10;;;;;;;6.12;100.00;94685.56;5085824;28;20551;-64
2023/10/25 02:15:58;;;;;;;8.10;7.38;;;;;;;6.11;100.00;94683.13;5092810;28;20035;-65
2023/10/25 02:18:23;;;;;;;6.03;5.25;;;;;;;6.10;100.00;94684.88;5090979;28;20027;-64
2023/10/25 02:20:48;;;;;;;13.65;6.55;;;;;;;6.10;100.00;94684.88;5101075;28;20404;-64
2023/10/25 02:23:14;;;;;;;7.88;6.38;;;;;;;6.09;100.00;94688.47;5090609;28;20241;-65
2023/10/25 02:25:39;;;;;;;27.58;8.43;;;;;;;6.08;100.00;94699.03;5089458;28;20052;-64
2023/10/25 02:28:05;;;;;;;7.85;6.95;;;;;;;6.09;100.00;94691.06;5089070;28;20027;-64
2023/10/25 02:30:30;;;;;;;7.38;6.60;;;;;;;6.11;100.00;94689.16;5080095;28;20055;-64
2023/10/25 02:32:55;;;;;;;9.32;7.20;;;;;;;6.12;100.00;94700.44;5095987;28;20012;-65
2023/10/25 02:35:21;;;;;;;14.27;9.38;;;;;;;6.06;100.00;94698.34;5082012;28;20028;-64
2023/10/25 02:37:46;;;;;;;26.55;10.75;;;;;;;6.06;100.00;94695.75;5079708;28;20056;-65
2023/10/25 02:40:12;;;;;;;13.27;10.10;;;;;;;5.99;100.00;94691.06;5085619;28;21094;-64
2023/10/25 02:42:41;;;;;;;14.75;11.25;;;;;;;6.02;100.00;94684.78;5092510;28;20041;-65
2023/10/25 02:45:06;;;;;;;18.83;10.02;;;;;;;6.00;100.00;94676.22;5095984;28;20024;-64
2023/10/25 02:47:32;;;;;;;12.15;10.13;;;;;;;5.97;100.00;94674.69;5084509;28;20519;-64
2023/10/25 02:49:57;;;;;;;10.35;7.95;;;;;;;6.18;100.00;94662.44;5092724;28;20016;-65
2023/10/25 02:52:23;;;;;;;9.00;6.65;;;;;;;6.03;100.00;94660.28;5081461;28;20017;-65
2023/10/25 02:54:48;;;;;;;7.97;7.20;;;;;;;5.92;100.00;94663.00;5082589;28;20052;-65
2023/10/25 02:57:14;;;;;;;10.20;8.13;;;;;;;5.90;100.00;94657.94;5083652;28;20037;-65
2023/10/25 02:59:39;;;;;;;8.82;7.97;;;;;;;5.85;100.00;94663.56;5087180;28;20503;-64
2023/10/25 03:02:04;;;;;;;8.88;7.97;;;;;;;5.81;100.00;94667.41;5084652;28;20050;-65
2023/10/25 03:04:30;;;;;;;9.05;8.25;;;;;;;5.82;100.00;94660.38;5085194;28;20020;-65
2023/10/25 03:06:55;;;;;;;7.57;6.80;;;;;;;5.83;100.00;94669.88;5086060;28;20020;-65
2023/10/25 03:09:21;;;;;;;6.97;5.90;;;;;;;5.87;100.00;94669.47;5089307;28;20040;-65
2023/10/25 03:11:46;;;;;;;11.00;9.90;;;;;;;5.91;100.00;94672.63;5082658;28;20063;-64
2023/10/25 03:14:11;;;;;;;11.60;10.40;;;;;;;5.83;100.00;94683.78;5087343;28;20103;-65
2023/10/25 03:16:37;;;;;;;10.18;9.07;;;;;;;5.88;100.00;94681.56;5079918;28;20091;-65
2023/10/25 03:19:02;;;;;;;10.82;7.55;;;;;;;6.15;100.00;94687.91;5082884;28;20051;-65
2023/10/25 03:21:28;;;;;;;7.53;6.82;;;;;;;5.91;100.00;94688.31;5096190;28;20040;-65
2023/10/25 03:23:53;;;;;;;7.85;7.05;;;;;;;5.84;100.00;94695.88;5081920;28;20029;-65
2023/10/25 03:26:18;;;;;;;8.25;7.45;;;;;;;5.81;100.00;94703.16;5090824;28;20644;-64
2023/10/25 03:28:44;;;;;;;14.18;7.47;;;;;;;5.83;100.00;94696.00;5081622;28;20035;-64
2023/10/25 03:31:10;;;;;;;7.93;7.00;;;;;;;5.84;100.00;94693.25;5087238;28;20032;-65
2023/10/25 03:33:36;;;;;;;6.85;6.25;;;;;;;5.81;100.00;94697.94;5093254;28;20050;-65
2023/10/25 03:36:01;;;;;;;5.80;5.30;;;;;;;5.78;100.00;94693.81;5082583;28;20025;-65
2023/10/25 03:38:27;;;;;;;6.22;5.72;;;;;;;5.76;100.00;94693.13;5087079;28;20189;-65
2023/10/25 03:41:04;;;;;;;7.40;5.32;;;;;;;5.79;100.00;94686.78;5094746;28;20579;-64
2023/10/25 03:43:31;;;;;;;6.03;5.28;;;;;;;5.80;100.00;94696.28;5088126;28;20548;-65
2023/10/25 03:45:56;;;;;;;7.63;6.93;;;;;;;5.78;100.00;94696.44;5086602;28;20012;-65
2023/10/25 03:48:21;;;;;;;7.65;4.78;;;;;;;5.79;100.00;94695.47;5081940;28;20066;-65
2023/10/25 03:50:47;;;;;;;4.22;3.83;;;;;;;5.83;100.00;94703.84;5093595;28;20055;-65
2023/10/25 03:53:12;;;;;;;5.63;3.60;;;;;;;5.87;100.00;94695.59;5097801;28;20480;-65
2023/10/25 03:55:38;;;;;;;3.60;3.38;;;;;;;5.92;100.00;94700.41;5090462;28;20058;-65
2023/10/25 03:58:03;;;;;;;4.07;3.13;;;;;;;5.91;100.00;94698.75;5094573;28;20032;-65
2023/10/25 04:00:28;;;;;;;3.58;3.28;;;;;;;5.89;100.00;94692.84;5089981;28;20024;-64
2023/10/25 04:02:54;;;;;;;3.78;3.35;;;;;;;5.90;100.00;94696.28;5093916;28;20103;-65
2023/10/25 04:05:19;;;;;;;3.47;3.28;;;;;;;5.90;100.00;94688.44;5086609;28;20099;-65
2023/10/25 04:07:45;;;;;;;3.35;3.15;;;;;;;5.90;100.00;94699.72;5083586;28;20029;-65
2023/10/25 04:10:10;;;;;;;3.35;2.90;;;;;;;5.92;100.00;94691.75;5086400;28;20166;-65
2023/10/25 04:12:36;;;;;;;3.30;3.03;;;;;;;5.88;100.00;94689.41;5088655;28;20024;-65
2023/10/25 04:15:02;;;;;;;3.20;2.85;;;;;;;5.91;100.00;94688.31;5093554;28;20036;-65
2023/10/25 04:17:28;;;;;;;3.70;3.45;;;;;;;5.85;100.00;94691.47;5087015;28;20024;-65
2023/10/25 04:19:53;;;;;;;3.60;3.30;;;;;;;5.86;100.00;94687.91;5087473;28;20027;-65
2023/10/25 04:22:19;;;;;;;3.53;3.10;;;;;;;5.84;100.00;94689.81;5090240;28;20024;-65
2023/10/25 04:24:44;;;;;;;3.00;2.80;;;;;;;5.86;100.00;94685.31;5091966;28;20147;-65
2023/10/25 04:27:10;;;;;;;3.17;2.88;;;;;;;5.83;100.00;94664.66;5095417;27;20023;-66
2023/10/25 04:29:35;;;;;;;3.22;3.03;;;;;;;5.83;100.00;94664.66;5092039;28;20047;-64
2023/10/25 04:32:00;;;;;;;3.35;3.05;;;;;;;5.81;100.00;94650.91;5094286;28;20500;-65
2023/10/25 04:34:26;;;;;;;3.47;3.20;;;;;;;5.77;100.00;94645.16;5090071;28;20028;-65
2023/10/25 04:36:51;;;;;;;3.03;2.92;;;;;;;5.79;100.00;94647.63;5082616;28;20052;-65
2023/10/25 04:39:17;;;;;;;3.40;3.20;;;;;;;5.79;100.00;94648.44;5089753;28;20028;-64
2023/10/25 04:41:42;;;;;;;4.10;3.75;;;;;;;5.81;100.00;94646.53;5090399;28;20676;-64
2023/10/25 04:44:08;;;;;;;2.83;2.72;;;;;;;5.76;100.00;94653.13;5093886;28;20027;-65
2023/10/25 04:46:33;;;;;;;15.70;10.80;;;;;;;5.75;100.00;94636.63;5095000;28;20493;-65
2023/10/25 04:48:59;;;;;;;9.57;6.20;;;;;;;5.87;100.00;94639.94;5090169;28;20035;-65
2023/10/25 04:51:24;;;;;;;3.25;3.05;;;;;;;5.97;100.00;94638.13;5096825;28;20043;-65
2023/10/25 04:53:49;;;;;;;5.63;4.10;;;;;;;5.95;100.00;94645.28;5083822;28;20021;-65
2023/10/25 04:56:15;;;;;;;5.95;5.55;;;;;;;6.00;100.00;94642.25;5087589;28;20036;-65
2023/10/25 04:58:40;;;;;;;8.65;8.00;;;;;;;6.02;100.00;94643.78;5094050;28;20024;-65
2023/10/25 05:01:13;;;;;;;7.10;6.60;;;;;;;6.02;100.00;94645.56;5088940;28;20051;-64
2023/10/25 05:03:39;;;;;;;5.82;5.18;;;;;;;5.99;100.00;94644.03;5081886;28;20067;-65
2023/10/25 05:06:07;;;;;;;5.95;5.55;;;;;;;6.06;100.00;94646.09;5095397;28;20032;-65
2023/10/25 05:08:34;;;;;;;5.90;5.50;;;;;;;6.07;100.00;94643.34;5079698;28;20086;-65
2023/10/25 05:11:03;;;;;;;6.75;6.25;;;;;;;6.04;100.00;94637.56;5088977;28;20033;-65
2023/10/25 05:13:29;;;;;;;6.75;6.03;;;;;;;6.09;100.00;94630.16;5089859;28;20033;-65
2023/10/25 05:15:55;;;;;;;6.50;5.97;;;;;;;6.10;100.00;94626.59;5088754;28;20024;-64
2023/10/25 05:18:21;;;;;;;6.25;5.72;;;;;;;6.07;100.00;94630.28;5080471;28;20057;-65
2023/10/25 05:20:55;;;;;;;6.00;5.50;;;;;;;6.14;100.00;94635.78;5087941;28;20487;-65
2023/10/25 05:23:21;;;;;;;5.07;4.60;;;;;;;6.10;100.00;94632.63;5087520;28;20107;-65
2023/10/25 05:25:47;;;;;;;5.07;4.68;;;;;;;6.13;100.00;94634.94;5093825;28;20024;-66
2023/10/25 05:28:13;;;;;;;6.95;5.25;;;;;;;6.19;100.00;94638.81;5099637;28;20028;-65
2023/10/25 05:30:38;;;;;;;4.68;4.35;;;;;;;6.17;100.00;94640.72;5086266;28;20031;-65
2023/10/25 05:33:07;;;;;;;4.80;4.30;;;;;;;6.16;100.00;94639.09;5085292;28;20031;-64
2023/10/25 05:35:33;;;;;;;3.30;3.00;;;;;;;6.22;100.00;94642.94;5086199;28;20113;-65
2023/10/25 05:37:59;;;;;;;3.55;2.80;;;;;;;6.28;100.00;94644.97;5086969;28;20020;-65
2023/10/25 05:40:24;;;;;;;3.40;3.20;;;;;;;6.35;100.00;94627.75;5088666;28;20016;-64
2023/10/25 05:42:55;;;;;;;3.60;3.10;;;;;;;6.35;100.00;94629.56;5091670;28;20027;-64
2023/10/25 05:45:20;;;;;;;4.13;3.78;;;;;;;6.37;100.00;94638.06;5088040;28;20020;-65
2023/10/25 05:47:46;;;;;;;3.55;3.25;;;;;;;6.41;100.00;94621.13;5082816;28;20061;-65
2023/10/25 05:50:12;;;;;;;3.67;3.47;;;;;;;6.42;100.00;94615.78;5084879;28;20035;-65
2023/10/25 05:52:47;;;;;;;3.45;3.15;;;;;;;6.43;100.00;94616.59;5085824;28;20020;-65
2023/10/25 05:55:14;;;;;;;2.33;2.23;;;;;;;6.40;100.00;94614.25;5083564;28;20038;-64
2023/10/25 05:57:40;;;;;;;2.83;2.60;;;;;;;6.44;100.00;94602.53;5084099;28;20337;-65
2023/10/25 06:00:06;;;;;;;3.10;2.80;;;;;;;6.46;100.00;94611.06;5091216;28;20023;-65
2023/10/25 06:02:33;;;;;;;3.00;2.80;;;;;;;6.48;100.00;94611.75;5086683;28;20043;-65
2023/10/25 06:05:00;;;;;;;2.70;2.47;;;;;;;6.47;100.00;94609.28;5089437;28;20012;-65
2023/10/25 06:07:26;;;;;;;3.00;2.80;;;;;;;6.47;100.00;94610.09;5080164;28;20028;-64
2023/10/25 06:09:52;;;;;;;3.53;2.75;;;;;;;6.43;100.00;94619.19;5084465;28;20066;-66
2023/10/25 06:12:17;;;;;;;3.70;3.10;;;;;;;6.47;100.00;94609.28;5092836;28;20081;-65
2023/10/25 06:14:43;;;;;;;3.45;3.15;;;;;;;6.48;100.00;94614.34;5089283;28;20508;-65
2023/10/25 06:17:08;;;;;;;4.45;3.70;;;;;;;6.48;100.00;94632.66;5083214;28;20054;-65
2023/10/25 06:19:34;;;;;;;4.15;3.78;;;;;;;6.51;100.00;94624.53;5087030;28;20101;-65
2023/10/25 06:21:59;;;;;;;3.83;3.63;;;;;;;6.55;100.00;94614.63;5094032;28;20493;-65
2023/10/25 06:24:24;;;;;;;3.90;3.60;;;;;;;6.57;100.00;94618.75;5085433;28;20085;-64
2023/10/25 06:26:50;;;;;;;5.70;4.13;;;;;;;6.61;100.00;94608.81;5083592;28;20095;-64
2023/10/25 06:29:16;;;;;;;4.75;4.45;;;;;;;6.65;100.00;94612.78;5091384;28;20034;-64
2023/10/25 06:31:42;;;;;;;4.57;4.03;;;;;;;6.67;100.00;94610.84;5093059;28;20027;-65
2023/10/25 06:34:08;;;;;;;5.00;4.50;;;;;;;6.72;100.00;94615.63;5086336;28;20030;-64
2023/10/25 06:36:34;;;;;;;6.10;4.47;;;;;;;6.76;100.00;94617.03;5088457;28;20488;-65
2023/10/25 06:39:04;;;;;;;6.68;6.18;;;;;;;6.81;100.00;94616.56;5087034;28;20039;-64
2023/10/25 06:41:30;;;;;;;8.30;5.30;;;;;;;6.83;100.00;94623.31;5081716;28;20032;-65
2023/10/25 06:43:56;;;;;;;6.18;5.00;;;;;;;6.83;100.00;94628.53;5082399;28;20036;-64
2023/10/25 06:46:22;;;;;;;4.95;4.63;;;;;;;6.85;100.00;94626.59;5084552;28;20021;-65
2023/10/25 06:48:47;;;;;;;5.53;5.03;;;;;;;6.87;100.00;94632.50;5097512;27;20469;-65
2023/10/25 06:51:15;;;;;;;5.93;5.43;;;;;;;6.93;100.00;94635.50;5087730;28;20507;-65
2023/10/25 06:53:40;;;;;;;5.30;5.00;;;;;;;6.97;100.00;94635.09;5092858;28;20555;-66
2023/10/25 06:56:06;;;;;;;5.28;4.88;;;;;;;7.05;100.00;94639.59;5073076;28;20165;-65
2023/10/25 06:58:32;;;;;;;5.22;4.93;;;;;;;7.09;100.00;94634.91;5087328;28;20020;-65
2023/10/25 07:01:01;;;;;;;6.20;5.60;;;;;;;7.10;100.00;94634.72;5082093;28;20042;-65
2023/10/25 07:03:34;;;;;;;6.47;5.97;;;;;;;7.13;100.00;94637.06;5084311;28;20504;-65
2023/10/25 07:06:01;;;;;;;7.57;6.90;;;;;;;7.20;100.00;94631.25;5088979;28;20169;-65
2023/10/25 07:08:27;;;;;;;9.98;9.00;;;;;;;7.23;100.00;94633.56;5083683;28;20060;-65
2023/10/25 07:10:52;;;;;;;9.02;8.25;;;;;;;7.26;100.00;94641.13;5089784;28;20039;-65
2023/10/25 07:13:18;;;;;;;9.13;8.43;;;;;;;7.30;100.00;94651.16;5088540;28;20028;-66
2023/10/25 07:15:43;;;;;;;8.40;7.50;;;;;;;7.35;100.00;94650.69;5080945;28;20115;-65
2023/10/25 07:18:09;;;;;;;9.32;7.38;;;;;;;7.39;100.00;94649.44;5083119;28;20031;-65
2023/10/25 07:20:34;;;;;;;8.85;8.07;;;;;;;7.40;100.00;94645.84;5091350;28;20500;-65
2023/10/25 07:23:00;;;;;;;9.25;8.50;;;;;;;7.43;100.00;94650.81;5093368;28;20168;-66
2023/10/25 07:25:28;;;;;;;8.38;7.68;;;;;;;7.49;100.00;94656.41;5085640;28;20023;-65
2023/10/25 07:27:53;;;;;;;14.10;12.73;;;;;;;7.52;100.00;94654.34;5087976;28;20046;-65
2023/10/25 07:30:19;;;;;;;10.02;8.90;;;;;;;7.56;100.00;94646.97;5092701;28;20111;-65
2023/10/25 07:32:44;;;;;;;9.90;9.00;;;;;;;7.68;100.00;94639.72;5084675;28;20070;-65
2023/10/25 07:35:09;;;;;;;9.35;8.55;;;;;;;7.76;100.00;94628.50;5086522;28;20020;-65
2023/10/25 07:37:35;;;;;;;9.10;8.30;;;;;;;7.73;100.00;94627.00;5084208;28;20473;-65
2023/10/25 07:40:02;;;;;;;9.93;8.95;;;;;;;7.73;100.00;94627.81;5089432;28;20422;-65
2023/10/25 07:42:28;;;;;;;10.45;9.70;;;;;;;7.78;100.00;94626.56;5089263;28;20012;-65
2023/10/25 07:44:53;;;;;;;10.55;9.68;;;;;;;7.83;100.00;94638.22;5087657;28;20058;-65
2023/10/25 07:47:20;;;;;;;8.45;7.63;;;;;;;7.86;100.00;94643.16;5084120;28;20421;-65
2023/10/25 07:49:46;;;;;;;10.30;9.40;;;;;;;7.91;100.00;94652.38;5078042;28;20459;-65
2023/10/25 07:52:12;;;;;;;11.02;9.95;;;;;;;7.91;100.00;94649.75;5084566;28;20036;-65
2023/10/25 07:54:37;;;;;;;9.80;8.88;;;;;;;7.91;100.00;94658.44;5092932;28;20050;-65
2023/10/25 07:57:03;;;;;;;8.45;7.85;;;;;;;7.90;100.00;94648.94;5081433;28;20854;-65
2023/10/25 07:59:28;;;;;;;7.70;7.10;;;;;;;7.93;100.00;94646.00;5088854;28;20496;-65
2023/10/25 08:01:54;;;;;;;10.05;9.18;;;;;;;8.02;100.00;94663.44;5083669;28;20028;-65
2023/10/25 08:04:20;;;;;;;12.48;11.35;;;;;;;8.13;100.00;94645.84;5088630;28;20023;-65
2023/10/25 08:06:45;;;;;;;8.80;8.10;;;;;;;8.18;100.00;94648.81;5085410;28;20074;-65
2023/10/25 08:09:11;;;;;;;9.73;8.80;;;;;;;8.25;100.00;94655.09;5096690;28;20052;-66
2023/10/25 08:11:37;;;;;;;8.27;7.38;;;;;;;8.28;100.00;94657.41;5088677;28;20401;-65
2023/10/25 08:14:03;;;;;;;9.80;7.93;;;;;;;8.25;100.00;94652.47;5089336;28;20028;-65
2023/10/25 08:16:28;;;;;;;6.25;5.85;;;;;;;8.34;100.00;94660.41;5086169;28;20445;-66
2023/10/25 08:18:54;;;;;;;5.20;4.38;;;;;;;8.35;100.00;94654.19;5082492;28;20050;-65
2023/10/25 08:21:19;;;;;;;4.45;4.15;;;;;;;8.39;100.00;94664.19;5077489;28;20046;-65
2023/10/25 08:23:45;;;;;;;4.60;3.70;;;;;;;8.39;100.00;94663.38;5092451;28;20032;-66
2023/10/25 08:26:11;;;;;;;4.75;4.32;;;;;;;8.45;100.00;94668.00;5094465;28;20059;-66
2023/10/25 08:28:36;;;;;;;4.63;4.32;;;;;;;8.55;100.00;94674.03;5096420;28;20027;-66
2023/10/25 08:31:12;;;;;;;7.95;4.75;;;;;;;8.65;100.00;94689.66;5088420;28;20029;-66
2023/10/25 08:33:37;;;;;;;5.60;4.68;;;;;;;8.64;100.00;94693.28;5093388;28;20070;-66
2023/10/25 08:36:04;;;;;;;5.93;5.40;;;;;;;8.66;100.00;94679.97;5090371;28;20032;-66
2023/10/25 08:38:29;;;;;;;8.45;7.70;;;;;;;8.68;100.00;94693.75;5089105;28;20035;-66
2023/10/25 08:41:05;;;;;;;9.00;8.27;;;;;;;8.80;100.00;94708.28;5089452;28;20024;-66
2023/10/25 08:43:32;;;;;;;6.18;5.45;;;;;;;8.84;100.00;94700.91;5092784;28;20103;-65
2023/10/25 08:45:58;;;;;;;5.53;4.90;;;;;;;8.86;100.00;94688.47;5098122;28;20028;-66
2023/10/25 08:48:25;;;;;;;6.13;5.63;;;;;;;8.97;100.00;94684.75;5092802;28;20031;-65
2023/10/25 08:50:50;;;;;;;5.20;4.82;;;;;;;9.03;100.00;94674.44;5097212;28;20023;-65
2023/10/25 08:53:21;;;;;;;6.80;6.20;;;;;;;9.03;100.00;94671.81;5090893;28;20028;-65
2023/10/25 08:55:50;;;;;;;7.88;7.18;;;;;;;9.06;100.00;94680.34;5088027;28;20078;-65
2023/10/25 08:58:17;;;;;;;6.78;6.18;;;;;;;9.06;100.00;94677.72;5084881;28;20039;-65
2023/10/25 09:00:42;;;;;;;10.15;7.95;;;;;;;9.09;100.00;94670.34;5086253;28;20021;-65
2023/10/25 09:03:07;;;;;;;9.15;8.35;;;;;;;9.13;100.00;94679.56;5095173;28;20038;-66
2023/10/25 09:05:41;;;;;;;7.70;7.10;;;;;;;9.17;100.00;94664.31;5084068;28;20028;-66
2023/10/25 09:08:16;;;;;;;6.38;5.97;;;;;;;9.25;100.00;94659.09;5084914;28;20028;-66
2023/10/25 09:10:41;;;;;;;5.90;5.47;;;;;;;9.40;100.00;94655.84;5090703;28;20044;-66
2023/10/25 09:13:16;;;;;;;4.15;3.70;;;;;;;9.58;100.00;94655.72;5091957;28;20031;-65
2023/10/25 09:15:43;;;;;;;5.47;5.05;;;;;;;9.66;100.00;94658.38;5097920;28;20062;-65
2023/10/25 09:18:09;;;;;;;3.65;3.35;;;;;;;9.73;100.00;94666.44;5079870;28;20035;-65
2023/10/25 09:20:34;;;;;;;3.90;3.35;;;;;;;9.80;100.00;94666.59;5087016;28;20498;-65
2023/10/25 09:23:10;;;;;;;5.13;3.88;;;;;;;9.94;100.00;94673.84;5089353;28;20043;-65
2023/10/25 09:25:37;;;;;;;5.70;5.30;;;;;;;10.15;100.00;94688.34;5092369;28;20031;-65
2023/10/25 09:28:03;;;;;;;6.53;5.93;;;;;;;10.20;100.00;94682.59;5092678;28;20044;-65
2023/10/25 09:30:30;;;;;;;6.97;5.38;;;;;;;10.22;100.00;94689.31;5085165;28;20028;-65
2023/10/25 09:32:57;;;;;;;4.60;4.22;;;;;;;10.29;100.00;94692.13;5090495;28;20053;-65
2023/10/25 09:35:23;;;;;;;3.50;3.20;;;;;;;10.29;100.00;94687.69;5084952;28;20542;-65
2023/10/25 09:37:49;;;;;;;4.07;3.13;;;;;;;10.44;100.00;94700.19;5084709;28;20028;-66
2023/10/25 09:40:14;;;;;;;4.47;4.13;;;;;;;10.55;100.00;94710.41;5084596;28;20579;-66
2023/10/25 09:42:48;;;;;;;8.10;5.82;;;;;;;10.50;100.00;94704.81;5090325;28;20058;-66
2023/10/25 09:45:20;;;;;;;8.23;6.60;;;;;;;10.44;100.00;94708.09;5087870;28;20028;-66
2023/10/25 09:47:48;;;;;;;6.35;4.50;;;;;;;10.39;100.00;94715.63;5082866;28;20481;-66
2023/10/25 09:50:25;;;;;;;3.60;3.30;;;;;;;10.56;100.00;94713.84;5089107;28;20036;-66
2023/10/25 09:53:00;;;;;;;4.35;3.92;;;;;;;10.41;100.00;94708.44;5090196;28;20028;-65
2023/10/25 09:55:28;;;;;;;3.40;3.20;;;;;;;10.43;100.00;94703.81;5090351;28;20030;-65
2023/10/25 09:57:55;;;;;;;2.70;2.50;;;;;;;10.44;100.00;94701.03;5086518;28;20108;-66
2023/10/25 10:00:21;;;;;;;2.20;2.08;;;;;;;10.51;100.00;94701.19;5086457;28;20470;-66
2023/10/25 10:02:54;;;;;;;3.42;3.05;;;;;;;10.61;100.00;94716.81;5084368;28;20024;-65
2023/10/25 10:05:45;;;;;;;3.45;3.00;;;;;;;10.52;100.00;94773.06;5085229;28;20055;-65
2023/10/25 10:08:30;;;;;;;3.15;2.95;;;;;;;10.41;100.00;94774.19;5079885;28;20051;-65
2023/10/25 10:10:58;;;;;;;2.58;2.42;;;;;;;10.36;100.00;94787.81;5089028;28;20024;-65
2023/10/25 10:13:26;;;;;;;2.47;2.28;;;;;;;10.43;100.00;94803.81;5082924;28;20021;-65
2023/10/25 10:16:05;;;;;;;27.45;25.10;;;;;;;10.44;100.00;94805.44;5092334;28;20081;-66
2023/10/25 10:18:32;;;;;;;5.88;5.47;;;;;;;10.49;100.00;94823.38;5081162;28;20477;-65
2023/10/25 10:21:02;;;;;;;7.13;3.35;;;;;;;10.48;100.00;94840.97;5085707;28;20024;-66
2023/10/25 10:23:39;;;;;;;3.20;2.90;;;;;;;10.50;100.00;94851.34;5084884;28;20017;-65
2023/10/25 10:26:07;;;;;;;2.47;2.30;;;;;;;10.71;100.00;94854.34;5091617;28;20413;-66
2023/10/25 10:28:43;;;;;;;3.47;2.60;;;;;;;10.74;100.00;94863.72;5084942;28;20024;-65
2023/10/25 10:31:10;;;;;;;3.25;3.05;;;;;;;10.67;100.00;94867.97;5084412;28;20031;-66
2023/10/25 10:33:49;;;;;;;3.85;3.55;;;;;;;10.55;100.00;94875.38;5085412;28;20023;-65
2023/10/25 10:36:30;;;;;;;4.65;4.28;;;;;;;10.45;100.00;94889.50;5090717;28;20397;-65
2023/10/25 10:39:14;;;;;;;5.15;4.65;;;;;;;10.43;100.00;94878.31;5089631;28;20111;-65
2023/10/25 10:41:41;;;;;;;4.80;4.40;;;;;;;10.27;100.00;94875.59;5082547;28;20024;-66
2023/10/25 10:44:07;;;;;;;4.25;3.72;;;;;;;10.27;100.00;94870.34;5091314;28;20050;-66
2023/10/25 10:46:54;;;;;;;5.35;4.85;;;;;;;10.37;100.00;94867.56;5081207;28;20021;-66
2023/10/25 10:49:23;;;;;;;4.95;4.63;;;;;;;10.36;100.00;94866.75;5090296;28;20019;-65
2023/10/25 10:51:49;;;;;;;5.03;4.40;;;;;;;10.37;100.00;94878.91;5091090;28;20492;-64
2023/10/25 10:54:15;;;;;;;4.50;4.20;;;;;;;10.43;100.00;94874.84;5086524;28;20012;-64
2023/10/25 10:56:40;;;;;;;4.38;4.07;;;;;;;10.66;100.00;94871.59;5087179;28;20028;-64
2023/10/25 10:59:06;;;;;;;4.95;4.55;;;;;;;10.64;100.00;94878.84;5086224;28;20080;-64
2023/10/25 11:01:32;;;;;;;6.15;4.82;;;;;;;10.79;100.00;94882.50;5081779;28;20075;-64
2023/10/25 11:03:58;;;;;;;8.35;5.57;;;;;;;10.72;100.00;94874.41;5087544;28;20381;-65
2023/10/25 11:06:25;;;;;;;5.63;5.22;;;;;;;10.69;100.00;94876.53;5093823;28;20036;-64
2023/10/25 11:08:51;;;;;;;5.28;4.80;;;;;;;10.69;100.00;94879.16;5086870;28;20062;-64
2023/10/25 11:11:20;;;;;;;5.53;5.03;;;;;;;10.71;100.00;94877.19;5091297;28;20123;-64
2023/10/25 11:13:48;;;;;;;5.45;5.05;;;;;;;10.69;100.00;94884.44;5083007;28;20063;-65
2023/10/25 11:16:14;;;;;;;4.95;4.32;;;;;;;10.60;100.00;94881.81;5086963;28;20028;-65
2023/10/25 11:18:39;;;;;;;5.28;4.45;;;;;;;10.49;100.00;94873.41;5080517;28;20023;-64
2023/10/25 11:21:04;;;;;;;4.72;4.32;;;;;;;10.37;100.00;94886.81;5086988;28;20027;-64
2023/10/25 11:23:30;;;;;;;5.07;4.55;;;;;;;10.37;100.00;94876.28;5082504;28;20048;-65
2023/10/25 11:25:56;;;;;;;6.80;4.70;;;;;;;10.27;100.00;94881.69;5083599;28;20053;-65
2023/10/25 11:28:23;;;;;;;5.10;4.78;;;;;;;10.32;100.00;94882.03;5083983;28;20393;-65
2023/10/25 11:30:50;;;;;;;5.10;4.70;;;;;;;10.20;100.00;94879.88;5086359;28;20082;-64